Time;durP1;ratioP1;P1;durP2;ratioP2;P2;SDS_P1;SDS_P2;PMS_P1;PMS_P2;Temp;Humidity;BMP_temperature;BMP_pressure;BME280_temperature;BME280_humidity;BME280_pressure;Samples;Min_cycle;Max_cycle;Signal;HPM_P1;HPM_P2
2022/04/07 00:00:09;;;;;;;7.30;3.30;;;;;;;11.56;100.00;98985.69;5045073;28;20076;-70
2022/04/07 00:02:35;;;;;;;7.43;2.63;;;;;;;11.61;100.00;98981.56;5046075;28;20611;-72
2022/04/07 00:05:02;;;;;;;6.47;2.85;;;;;;;11.73;100.00;98983.56;5047526;28;20127;-71
2022/04/07 00:07:29;;;;;;;7.90;3.40;;;;;;;11.88;100.00;98971.56;5044885;28;20127;-71
2022/04/07 00:09:55;;;;;;;11.05;3.47;;;;;;;11.82;100.00;98978.13;5045772;28;20063;-71
2022/04/07 00:12:22;;;;;;;5.68;2.78;;;;;;;11.78;100.00;98977.47;5046689;28;20045;-71
2022/04/07 00:14:48;;;;;;;7.90;2.78;;;;;;;11.74;100.00;98980.34;5045580;28;20059;-71
2022/04/07 00:17:15;;;;;;;4.70;1.80;;;;;;;11.87;100.00;98967.25;5047503;28;20155;-70
2022/04/07 00:19:41;;;;;;;6.80;3.05;;;;;;;11.79;100.00;98963.19;5047576;28;20063;-72
2022/04/07 00:22:08;;;;;;;8.48;3.47;;;;;;;11.60;100.00;98966.94;5045939;28;20044;-71
2022/04/07 00:24:34;;;;;;;8.02;3.40;;;;;;;11.63;100.00;98968.84;5046695;28;20063;-71
2022/04/07 00:27:01;;;;;;;1.10;0.80;;;;;;;11.89;100.00;98958.50;5047629;28;20056;-71
2022/04/07 00:29:27;;;;;;;7.97;2.97;;;;;;;11.62;100.00;98956.22;5054430;28;20048;-71
2022/04/07 00:31:57;;;;;;;5.72;2.53;;;;;;;11.81;100.00;98951.66;5046532;28;20048;-72
2022/04/07 00:34:24;;;;;;;7.68;2.88;;;;;;;11.63;100.00;98970.84;5046875;28;20049;-72
2022/04/07 00:36:51;;;;;;;4.32;2.17;;;;;;;11.72;100.00;98979.25;5047088;28;20051;-71
2022/04/07 00:39:17;;;;;;;6.00;3.00;;;;;;;11.65;100.00;98946.25;5047221;28;20502;-70
2022/04/07 00:41:45;;;;;;;9.50;2.92;;;;;;;11.82;100.00;98947.66;5039441;28;20159;-71
2022/04/07 00:44:13;;;;;;;8.45;2.25;;;;;;;11.76;100.00;98947.44;5049522;28;20048;-71
2022/04/07 00:46:40;;;;;;;1.17;1.02;;;;;;;11.82;100.00;98929.03;5049344;28;20124;-71
2022/04/07 00:49:08;;;;;;;8.30;3.03;;;;;;;11.69;100.00;98931.06;5047078;28;20076;-71
2022/04/07 00:51:39;;;;;;;1.52;1.13;;;;;;;11.73;100.00;98909.56;5052198;28;20053;-74
2022/04/07 00:54:07;;;;;;;5.10;2.55;;;;;;;11.64;100.00;98928.09;5047011;28;20136;-71
2022/04/07 00:56:35;;;;;;;8.02;2.90;;;;;;;11.63;100.00;98921.75;5047757;28;20044;-71
2022/04/07 00:59:06;;;;;;;4.40;1.88;;;;;;;11.70;100.00;98909.66;5047143;28;20075;-70
2022/04/07 01:01:32;;;;;;;3.92;1.30;;;;;;;11.71;100.00;98900.16;5045050;28;20060;-70
2022/04/07 01:03:59;;;;;;;4.97;1.92;;;;;;;11.77;100.00;98914.94;5050345;28;20051;-71
2022/04/07 01:06:27;;;;;;;4.70;2.05;;;;;;;11.62;100.00;98888.97;5050471;28;20085;-71
2022/04/07 01:08:54;;;;;;;3.10;1.70;;;;;;;11.77;100.00;98888.03;5055195;28;20048;-70
2022/04/07 01:11:24;;;;;;;4.68;1.83;;;;;;;11.70;100.00;98887.50;5050979;28;20537;-70
2022/04/07 01:13:52;;;;;;;6.78;2.17;;;;;;;11.70;100.00;98881.94;5049457;28;20055;-70
2022/04/07 01:16:20;;;;;;;4.82;1.98;;;;;;;11.65;100.00;98885.31;5056681;28;20078;-70
2022/04/07 01:18:46;;;;;;;2.10;1.27;;;;;;;11.70;100.00;98868.09;5051118;28;20084;-70
2022/04/07 01:21:16;;;;;;;6.55;1.88;;;;;;;11.70;100.00;98873.66;5050057;28;20053;-72
2022/04/07 01:24:03;;;;;;;2.25;1.70;;;;;;;11.70;100.00;98882.75;5050603;28;20143;-71
2022/04/07 01:26:34;;;;;;;4.30;1.95;;;;;;;11.64;100.00;98878.22;5049793;28;20159;-70
2022/04/07 01:29:00;;;;;;;1.55;1.10;;;;;;;11.66;100.00;98865.47;5054123;28;20401;-71
2022/04/07 01:31:27;;;;;;;6.30;1.80;;;;;;;11.68;100.00;98862.25;5062506;28;20131;-71
2022/04/07 01:33:57;;;;;;;6.22;2.03;;;;;;;11.61;100.00;98845.84;5051453;28;20049;-71
2022/04/07 01:36:26;;;;;;;3.75;1.30;;;;;;;11.65;100.00;98846.53;5049511;28;20517;-70
2022/04/07 01:38:52;;;;;;;5.00;1.65;;;;;;;11.70;100.00;98843.97;5049757;28;20143;-70
2022/04/07 01:41:20;;;;;;;3.13;1.63;;;;;;;11.74;100.00;98844.59;5049305;28;20048;-70
2022/04/07 01:43:49;;;;;;;6.88;2.35;;;;;;;11.62;100.00;98836.34;5054750;28;20051;-69
2022/04/07 01:46:19;;;;;;;6.75;1.65;;;;;;;11.62;100.00;98828.03;5062711;28;20056;-69
2022/04/07 01:48:46;;;;;;;9.30;2.80;;;;;;;11.50;100.00;98837.13;5050438;28;20055;-71
2022/04/07 01:51:14;;;;;;;2.65;1.42;;;;;;;11.66;100.00;98826.69;5049149;28;20091;-71
2022/04/07 01:53:42;;;;;;;6.07;2.10;;;;;;;11.68;100.00;98818.69;5058086;28;20408;-70
2022/04/07 01:56:09;;;;;;;8.75;2.28;;;;;;;11.81;100.00;98805.56;5044844;28;20140;-71
2022/04/07 01:58:36;;;;;;;3.50;1.65;;;;;;;11.60;100.00;98816.59;5050567;28;20738;-72
2022/04/07 02:01:06;;;;;;;6.10;2.50;;;;;;;11.67;100.00;98816.38;5041816;28;20529;-71
2022/04/07 02:03:33;;;;;;;9.18;2.95;;;;;;;11.65;100.00;98810.53;5048735;28;20603;-73
2022/04/07 02:06:10;;;;;;;3.72;1.70;;;;;;;11.79;100.00;98812.78;5044163;28;20045;-71
2022/04/07 02:08:37;;;;;;;5.80;1.63;;;;;;;11.74;100.00;98811.34;5049889;28;20056;-71
2022/04/07 02:11:03;;;;;;;3.97;1.63;;;;;;;11.91;100.00;98804.41;5049608;28;20565;-70
2022/04/07 02:13:33;;;;;;;7.35;2.00;;;;;;;11.78;100.00;98794.63;5048638;28;20059;-71
2022/04/07 02:16:01;;;;;;;2.17;1.00;;;;;;;11.86;100.00;98802.22;5041966;28;20056;-71
2022/04/07 02:18:28;;;;;;;4.53;1.88;;;;;;;11.72;100.00;98794.44;5049766;28;20057;-71
2022/04/07 02:20:54;;;;;;;2.90;1.40;;;;;;;11.74;100.00;98783.66;5049689;28;20140;-70
2022/04/07 02:23:21;;;;;;;2.85;1.30;;;;;;;11.77;100.00;98785.53;5049422;28;20053;-72
2022/04/07 02:25:47;;;;;;;5.85;1.67;;;;;;;11.62;100.00;98775.41;5048956;28;20525;-70
2022/04/07 02:28:14;;;;;;;4.45;1.58;;;;;;;11.65;100.00;98780.81;5047396;28;20051;-71
2022/04/07 02:30:40;;;;;;;4.30;1.38;;;;;;;11.66;100.00;98776.03;5062546;28;20091;-70
2022/04/07 02:33:07;;;;;;;6.93;2.15;;;;;;;11.58;100.00;98771.97;5052781;28;20057;-70
2022/04/07 02:35:33;;;;;;;5.32;1.58;;;;;;;11.69;100.00;98775.16;5049497;28;20057;-72
2022/04/07 02:38:00;;;;;;;4.60;1.90;;;;;;;11.66;100.00;98756.66;5049861;28;20139;-70
2022/04/07 02:40:26;;;;;;;3.70;1.27;;;;;;;11.60;100.00;98744.56;5048493;28;20382;-71
2022/04/07 02:42:53;;;;;;;5.82;1.75;;;;;;;11.49;100.00;98767.13;5051116;28;20140;-71
2022/04/07 02:45:19;;;;;;;5.13;1.10;;;;;;;11.67;100.00;98747.13;5063523;28;20048;-73
2022/04/07 02:47:46;;;;;;;4.60;1.63;;;;;;;11.55;100.00;98734.88;5051954;28;20521;-71
2022/04/07 02:50:12;;;;;;;5.68;2.08;;;;;;;11.62;100.00;98729.09;5049445;28;20156;-72
2022/04/07 02:52:39;;;;;;;4.25;1.85;;;;;;;11.50;100.00;98723.56;5049506;28;20045;-72
2022/04/07 02:55:06;;;;;;;10.27;2.63;;;;;;;11.54;100.00;98715.94;5056357;28;20154;-72
2022/04/07 02:57:33;;;;;;;5.82;2.33;;;;;;;11.40;100.00;98708.91;5050106;28;20148;-72
2022/04/07 03:00:00;;;;;;;7.25;1.75;;;;;;;11.57;100.00;98706.69;5050022;28;20045;-71
2022/04/07 03:02:27;;;;;;;6.50;2.65;;;;;;;11.43;100.00;98687.84;5048019;28;20187;-71
2022/04/07 03:04:54;;;;;;;1.83;1.35;;;;;;;11.54;100.00;98688.25;5050006;28;20106;-72
2022/04/07 03:07:20;;;;;;;7.97;2.50;;;;;;;11.40;100.00;98703.38;5051340;28;20088;-71
2022/04/07 03:09:47;;;;;;;6.13;2.25;;;;;;;11.45;100.00;98677.09;5049733;28;20050;-71
2022/04/07 03:12:13;;;;;;;6.78;1.52;;;;;;;11.55;100.00;98673.94;5048653;28;20088;-71
2022/04/07 03:14:40;;;;;;;5.05;2.50;;;;;;;11.54;100.00;98682.72;5049397;28;20501;-71
2022/04/07 03:17:07;;;;;;;4.50;2.25;;;;;;;11.59;100.00;98665.50;5049321;28;20048;-71
2022/04/07 03:19:34;;;;;;;6.00;2.13;;;;;;;11.58;100.00;98664.72;5044902;28;20134;-71
2022/04/07 03:22:01;;;;;;;4.22;1.48;;;;;;;11.63;100.00;98677.22;5046273;28;20106;-71
2022/04/07 03:24:27;;;;;;;4.50;1.85;;;;;;;11.76;100.00;98653.78;5048698;28;20501;-70
2022/04/07 03:27:05;;;;;;;4.00;1.67;;;;;;;11.89;100.00;98653.69;5047908;28;20081;-70
2022/04/07 03:29:32;;;;;;;3.33;1.73;;;;;;;11.72;100.00;98655.91;5058145;28;20419;-72
2022/04/07 03:31:59;;;;;;;7.88;1.80;;;;;;;11.73;100.00;98648.34;5052227;28;20524;-72
2022/04/07 03:34:25;;;;;;;9.27;2.00;;;;;;;11.78;100.00;98639.47;5042543;28;20116;-71
2022/04/07 03:36:52;;;;;;;2.67;1.45;;;;;;;11.78;100.00;98647.78;5049017;28;20053;-70
2022/04/07 03:39:18;;;;;;;9.68;2.28;;;;;;;11.78;100.00;98640.22;5047765;28;20131;-70
2022/04/07 03:41:45;;;;;;;2.95;1.27;;;;;;;12.02;100.00;98626.63;5048098;28;20064;-70
2022/04/07 03:44:12;;;;;;;1.05;1.00;;;;;;;11.97;100.00;98625.22;5057752;28;20048;-72
2022/04/07 03:46:39;;;;;;;5.82;1.67;;;;;;;12.01;100.00;98625.06;5052262;28;20605;-70
2022/04/07 03:49:06;;;;;;;7.47;2.30;;;;;;;11.79;100.00;98630.72;5048141;28;20056;-71
2022/04/07 03:51:33;;;;;;;2.20;1.25;;;;;;;12.10;100.00;98598.19;5048315;28;20501;-72
2022/04/07 03:54:00;;;;;;;1.67;0.85;;;;;;;12.18;100.00;98612.50;5055289;28;20440;-71
2022/04/07 03:56:26;;;;;;;3.63;1.38;;;;;;;12.18;100.00;98606.97;5046762;28;20466;-71
2022/04/07 03:58:53;;;;;;;6.57;2.20;;;;;;;12.03;100.00;98628.97;5048665;28;20045;-71
2022/04/07 04:01:19;;;;;;;4.82;1.63;;;;;;;12.18;100.00;98616.06;5040588;28;20067;-71
2022/04/07 04:03:46;;;;;;;8.02;1.52;;;;;;;12.12;100.00;98597.72;5048340;28;20128;-71
2022/04/07 04:06:12;;;;;;;4.53;1.10;;;;;;;12.22;100.00;98597.28;5048094;28;20139;-71
2022/04/07 04:08:39;;;;;;;5.72;1.25;;;;;;;12.17;100.00;98575.72;5085486;28;20136;-70
2022/04/07 04:11:06;;;;;;;4.35;1.13;;;;;;;12.18;100.00;98582.00;5047788;28;20124;-72
2022/04/07 04:13:33;;;;;;;6.35;1.52;;;;;;;12.17;100.00;98591.56;5045791;28;20076;-70
2022/04/07 04:16:01;;;;;;;6.90;1.83;;;;;;;12.16;100.00;98565.09;5047982;28;20053;-70
2022/04/07 04:18:28;;;;;;;7.28;1.50;;;;;;;12.18;100.00;98548.75;5048053;28;20045;-70
2022/04/07 04:20:55;;;;;;;6.15;1.15;;;;;;;12.22;100.00;98561.22;5046463;28;20493;-72
2022/04/07 04:23:21;;;;;;;5.38;0.90;;;;;;;12.35;100.00;98544.44;5047649;28;20136;-71
2022/04/07 04:25:48;;;;;;;3.92;1.27;;;;;;;12.25;100.00;98545.69;5048055;28;20049;-70
2022/04/07 04:28:14;;;;;;;5.68;1.77;;;;;;;12.39;100.00;98545.84;5048009;28;20123;-71
2022/04/07 04:30:41;;;;;;;10.45;1.80;;;;;;;12.22;100.00;98530.75;5049595;28;20053;-71
2022/04/07 04:33:08;;;;;;;6.35;1.77;;;;;;;12.38;100.00;98529.66;5047334;28;20057;-70
2022/04/07 04:35:34;;;;;;;5.90;1.38;;;;;;;12.24;100.00;98521.97;5047597;28;20055;-72
2022/04/07 04:38:01;;;;;;;2.53;1.38;;;;;;;12.32;100.00;98528.75;5048290;28;20067;-70
2022/04/07 04:40:27;;;;;;;5.50;1.30;;;;;;;12.27;100.00;98538.47;5051485;28;20056;-70
2022/04/07 04:42:54;;;;;;;3.28;1.60;;;;;;;12.29;100.00;98505.47;5050172;28;20056;-70
2022/04/07 04:45:21;;;;;;;3.03;1.38;;;;;;;12.35;100.00;98511.97;5053854;28;20123;-70
2022/04/07 04:47:47;;;;;;;6.75;1.70;;;;;;;12.33;99.88;98491.47;5051600;28;20053;-70
2022/04/07 04:50:14;;;;;;;1.90;0.88;;;;;;;12.45;99.82;98485.78;5051730;28;20088;-70
2022/04/07 04:52:40;;;;;;;4.13;1.42;;;;;;;12.37;99.86;98476.22;5052149;28;20138;-70
2022/04/07 04:55:07;;;;;;;3.50;1.55;;;;;;;12.35;100.00;98478.69;5054905;28;20381;-71
2022/04/07 04:57:34;;;;;;;12.40;1.30;;;;;;;12.51;99.38;98489.47;5051927;28;20049;-71
2022/04/07 05:00:01;;;;;;;12.40;1.92;;;;;;;12.44;100.00;98469.59;5051642;28;20072;-71
2022/04/07 05:02:27;;;;;;;1.92;0.60;;;;;;;12.41;100.00;98467.75;5048233;28;20522;-72
2022/04/07 05:04:54;;;;;;;4.60;1.77;;;;;;;12.15;100.00;98455.44;5051826;28;20052;-72
2022/04/07 05:07:20;;;;;;;4.38;1.48;;;;;;;12.00;100.00;98449.72;5053187;28;20067;-71
2022/04/07 05:09:47;;;;;;;2.17;1.10;;;;;;;11.98;100.00;98443.13;5052348;28;20601;-70
2022/04/07 05:12:13;;;;;;;6.97;1.67;;;;;;;11.70;100.00;98438.75;5050150;28;20136;-71
2022/04/07 05:14:40;;;;;;;1.75;1.02;;;;;;;11.84;100.00;98438.16;5051504;28;20083;-72
2022/04/07 05:17:07;;;;;;;1.50;0.98;;;;;;;11.74;100.00;98423.53;5051697;28;20136;-70
2022/04/07 05:19:33;;;;;;;4.90;1.65;;;;;;;11.67;100.00;98425.81;5051913;28;20065;-71
2022/04/07 05:22:00;;;;;;;6.20;2.20;;;;;;;11.48;100.00;98447.13;5045811;28;20044;-71
2022/04/07 05:24:26;;;;;;;2.63;1.48;;;;;;;11.43;100.00;98422.81;5044499;28;20100;-70
2022/04/07 05:26:53;;;;;;;6.93;2.28;;;;;;;11.50;100.00;98418.97;5051433;28;20041;-73
2022/04/07 05:29:20;;;;;;;5.95;1.33;;;;;;;11.39;100.00;98397.28;5060053;28;20136;-71
2022/04/07 05:31:46;;;;;;;7.45;2.15;;;;;;;11.30;100.00;98390.97;5064743;28;20044;-71
2022/04/07 05:34:13;;;;;;;5.35;2.53;;;;;;;11.27;100.00;98378.03;5050643;28;20064;-72
2022/04/07 05:36:42;;;;;;;4.38;1.38;;;;;;;11.39;100.00;98386.22;5049523;28;20090;-71
2022/04/07 05:39:08;;;;;;;3.42;1.63;;;;;;;11.41;100.00;98371.91;5051133;28;20123;-73
2022/04/07 05:41:35;;;;;;;6.57;2.30;;;;;;;11.27;100.00;98372.50;5049728;28;20527;-74
2022/04/07 05:44:01;;;;;;;6.00;2.30;;;;;;;11.35;100.00;98357.13;5052141;28;20063;-72
2022/04/07 05:46:28;;;;;;;6.75;2.75;;;;;;;11.42;100.00;98340.22;5059618;28;20426;-71
2022/04/07 05:48:54;;;;;;;3.70;1.88;;;;;;;11.48;100.00;98341.91;5057294;28;20513;-73
2022/04/07 05:51:21;;;;;;;5.18;2.80;;;;;;;11.43;100.00;98337.00;5046622;28;20063;-71
2022/04/07 05:53:47;;;;;;;7.43;2.42;;;;;;;11.49;100.00;98340.69;5050746;28;20084;-72
2022/04/07 05:56:14;;;;;;;9.27;2.88;;;;;;;11.56;100.00;98334.06;5049825;28;20045;-72
2022/04/07 05:58:41;;;;;;;2.45;1.40;;;;;;;11.84;100.00;98314.25;5052326;28;20064;-72
2022/04/07 06:01:07;;;;;;;3.03;1.20;;;;;;;11.80;100.00;98293.47;5048476;28;20150;-72
2022/04/07 06:03:36;;;;;;;4.13;1.73;;;;;;;11.80;100.00;98276.84;5082874;28;20063;-70
2022/04/07 06:06:02;;;;;;;7.38;2.42;;;;;;;11.73;100.00;98299.34;5050988;28;20163;-71
2022/04/07 06:08:33;;;;;;;3.10;1.38;;;;;;;11.83;100.00;98298.88;5053846;28;20049;-70
2022/04/07 06:10:59;;;;;;;6.30;2.55;;;;;;;11.71;100.00;98332.28;5047862;28;20653;-72
2022/04/07 06:13:26;;;;;;;5.65;1.52;;;;;;;11.90;100.00;98273.63;5050508;28;20053;-72
2022/04/07 06:15:52;;;;;;;3.58;1.73;;;;;;;11.81;100.00;98286.72;5050495;28;20049;-72
2022/04/07 06:18:19;;;;;;;4.57;1.90;;;;;;;11.75;100.00;98299.66;5051084;28;20132;-72
2022/04/07 06:20:47;;;;;;;3.67;1.73;;;;;;;11.75;100.00;98283.78;5046444;28;20133;-72
2022/04/07 06:23:13;;;;;;;4.57;1.23;;;;;;;11.79;100.00;98278.09;5045279;28;20044;-72
2022/04/07 06:25:40;;;;;;;2.30;1.13;;;;;;;11.76;100.00;98281.78;5049878;28;20136;-70
2022/04/07 06:28:06;;;;;;;1.45;0.90;;;;;;;11.71;100.00;98272.09;5051530;28;20708;-72
2022/04/07 06:30:33;;;;;;;3.50;1.38;;;;;;;11.79;100.00;98276.09;5066723;28;20487;-73
2022/04/07 06:32:59;;;;;;;3.75;1.10;;;;;;;11.78;100.00;98226.72;5054528;28;20059;-72
2022/04/07 06:35:26;;;;;;;1.63;0.95;;;;;;;11.64;100.00;98266.88;5049890;28;20057;-73
2022/04/07 06:37:56;;;;;;;4.88;1.40;;;;;;;11.72;100.00;98256.25;5049236;28;20056;-72
2022/04/07 06:40:26;;;;;;;5.38;1.40;;;;;;;11.71;100.00;98246.41;5043737;28;20049;-72
2022/04/07 06:42:56;;;;;;;5.97;1.20;;;;;;;11.64;100.00;98275.19;5044777;28;20091;-72
2022/04/07 06:45:25;;;;;;;1.20;1.10;;;;;;;11.80;100.00;98235.31;5050672;28;20084;-71
2022/04/07 06:47:52;;;;;;;2.08;1.33;;;;;;;11.74;100.00;98218.53;5055270;28;20045;-71
2022/04/07 06:50:20;;;;;;;3.10;1.50;;;;;;;11.72;100.00;98220.25;5048822;28;20056;-74
2022/04/07 06:52:47;;;;;;;2.42;1.15;;;;;;;11.78;100.00;98205.31;5050511;28;20053;-72
2022/04/07 06:55:15;;;;;;;6.10;1.35;;;;;;;11.80;100.00;98200.06;5051809;28;20081;-71
2022/04/07 06:57:51;;;;;;;2.70;1.20;;;;;;;11.97;100.00;98181.09;5048124;28;20128;-72
2022/04/07 07:00:20;;;;;;;2.90;1.40;;;;;;;11.93;100.00;98166.63;5048749;28;20059;-73
2022/04/07 07:02:54;;;;;;;4.25;1.25;;;;;;;11.83;100.00;98187.28;5047051;28;20622;-70
2022/04/07 07:05:22;;;;;;;5.88;0.98;;;;;;;12.06;100.00;98165.22;5044731;28;20051;-72
2022/04/07 07:07:49;;;;;;;2.63;0.98;;;;;;;11.94;100.00;98162.63;5050433;28;20048;-72
2022/04/07 07:10:24;;;;;;;2.60;1.10;;;;;;;11.78;100.00;98157.47;5049659;28;20145;-74
2022/04/07 07:12:52;;;;;;;2.58;1.00;;;;;;;11.77;100.00;98140.06;5046813;28;20697;-72
2022/04/07 07:15:23;;;;;;;1.02;0.77;;;;;;;11.60;100.00;98136.09;5049740;28;20499;-74
2022/04/07 07:17:51;;;;;;;4.82;1.48;;;;;;;11.55;100.00;98130.41;5046949;28;20044;-73
2022/04/07 07:20:18;;;;;;;2.90;1.40;;;;;;;11.46;100.00;98125.66;5043571;28;20053;-72
2022/04/07 07:22:45;;;;;;;6.60;1.98;;;;;;;11.34;100.00;98117.53;5048821;28;20091;-72
2022/04/07 07:25:12;;;;;;;3.72;1.35;;;;;;;11.24;100.00;98113.25;5048307;28;20135;-73
2022/04/07 07:27:45;;;;;;;2.78;1.23;;;;;;;11.23;100.00;98086.78;5049876;28;20083;-72
2022/04/07 07:30:15;;;;;;;6.15;1.50;;;;;;;11.31;100.00;98085.25;5052190;28;20072;-72
2022/04/07 07:32:44;;;;;;;0.65;0.60;;;;;;;11.26;100.00;98074.78;5046124;28;20572;-73
2022/04/07 07:35:11;;;;;;;2.83;1.20;;;;;;;11.22;100.00;98072.19;5048242;28;20059;-72
2022/04/07 07:37:47;;;;;;;5.00;2.15;;;;;;;11.20;100.00;98058.06;5049112;28;20164;-73
2022/04/07 07:40:14;;;;;;;3.13;1.20;;;;;;;11.22;100.00;98039.00;5048474;28;20132;-73
2022/04/07 07:42:42;;;;;;;5.35;1.98;;;;;;;11.07;100.00;98042.88;5047255;28;20084;-73
2022/04/07 07:45:08;;;;;;;5.82;2.60;;;;;;;10.95;100.00;98055.66;5050218;28;20138;-73
2022/04/07 07:47:35;;;;;;;3.17;1.52;;;;;;;11.02;100.00;98051.78;5052155;28;20476;-74
2022/04/07 07:50:03;;;;;;;1.00;0.90;;;;;;;11.03;100.00;98022.91;5042242;28;20091;-75
2022/04/07 07:52:30;;;;;;;3.65;2.60;;;;;;;11.06;100.00;98005.34;5047023;28;20106;-75
2022/04/07 07:54:56;;;;;;;3.60;1.48;;;;;;;11.01;100.00;98006.00;5052917;28;20501;-74
2022/04/07 07:57:23;;;;;;;4.22;1.88;;;;;;;11.06;100.00;98006.13;5050671;28;20144;-73
2022/04/07 07:59:51;;;;;;;1.50;1.10;;;;;;;11.07;100.00;97979.25;5050736;28;20049;-75
2022/04/07 08:02:21;;;;;;;2.72;0.93;;;;;;;11.09;100.00;97977.53;5045553;28;20076;-74
2022/04/07 08:04:47;;;;;;;6.00;1.67;;;;;;;11.05;100.00;97963.09;5044254;28;20049;-74
2022/04/07 08:07:14;;;;;;;2.38;1.15;;;;;;;11.13;100.00;97961.53;5047423;28;20095;-74
2022/04/07 08:09:41;;;;;;;8.23;2.78;;;;;;;11.19;100.00;97954.13;5049284;28;20132;-74
2022/04/07 08:12:07;;;;;;;2.35;1.40;;;;;;;11.15;100.00;97956.31;5044880;28;20151;-74
2022/04/07 08:14:34;;;;;;;2.05;0.93;;;;;;;11.04;100.00;97974.63;5048038;28;20091;-74
2022/04/07 08:17:02;;;;;;;1.95;0.77;;;;;;;11.03;100.00;97957.25;5051670;28;20073;-73
2022/04/07 08:19:35;;;;;;;2.85;0.88;;;;;;;11.13;100.00;97933.84;5048748;28;20044;-74
2022/04/07 08:22:03;;;;;;;4.45;1.38;;;;;;;11.00;100.00;97933.28;5046948;28;20112;-73
2022/04/07 08:24:29;;;;;;;4.32;1.42;;;;;;;11.02;100.00;97916.22;5048046;28;20072;-73
2022/04/07 08:26:56;;;;;;;2.45;0.85;;;;;;;11.22;100.00;97905.38;5046076;28;20558;-73
2022/04/07 08:29:22;;;;;;;1.48;0.93;;;;;;;11.24;100.00;97916.75;5058062;28;20048;-72
2022/04/07 08:31:51;;;;;;;3.63;1.65;;;;;;;11.29;100.00;97891.19;5044229;28;20084;-75
2022/04/07 08:34:19;;;;;;;1.58;1.17;;;;;;;11.33;100.00;97906.41;5047745;28;20049;-73
2022/04/07 08:36:47;;;;;;;1.83;1.30;;;;;;;11.39;100.00;97873.31;5047732;28;20490;-72
2022/04/07 08:39:14;;;;;;;2.47;1.35;;;;;;;11.60;100.00;97853.63;5048607;28;20072;-74
2022/04/07 08:41:44;;;;;;;2.03;1.02;;;;;;;11.53;100.00;97850.44;5045768;28;20073;-73
2022/04/07 08:44:12;;;;;;;4.00;1.50;;;;;;;11.52;100.00;97871.84;5038226;28;20128;-72
2022/04/07 08:46:40;;;;;;;1.75;1.00;;;;;;;11.57;100.00;97862.09;5054892;28;20053;-73
2022/04/07 08:49:08;;;;;;;2.53;0.90;;;;;;;11.68;100.00;97831.94;5051391;28;20049;-71
2022/04/07 08:51:35;;;;;;;4.35;1.70;;;;;;;11.78;100.00;97814.00;5045920;28;20555;-73
2022/04/07 08:54:01;;;;;;;3.95;1.27;;;;;;;11.59;100.00;97812.56;5056320;28;20148;-73
2022/04/07 08:56:28;;;;;;;5.53;1.35;;;;;;;11.63;100.00;97816.72;5047079;28;20703;-72
2022/04/07 08:58:54;;;;;;;1.67;1.00;;;;;;;11.61;100.00;97827.50;5051837;28;20044;-72
2022/04/07 09:01:22;;;;;;;1.80;1.00;;;;;;;11.62;100.00;97828.28;5048151;28;20048;-71
2022/04/07 09:03:48;;;;;;;1.55;1.25;;;;;;;11.76;100.00;97833.84;5041257;28;20060;-73
2022/04/07 09:06:18;;;;;;;1.38;0.82;;;;;;;11.79;100.00;97796.13;5050897;28;20430;-73
2022/04/07 09:08:45;;;;;;;2.80;0.77;;;;;;;11.81;100.00;97796.44;5084003;28;20425;-72
2022/04/07 09:11:12;;;;;;;4.70;1.35;;;;;;;11.90;100.00;97818.50;5047103;28;20053;-72
2022/04/07 09:13:41;;;;;;;1.27;0.80;;;;;;;11.98;100.00;97828.00;5046387;28;20124;-73
2022/04/07 09:16:13;;;;;;;0.98;0.80;;;;;;;12.05;100.00;97900.41;5050334;28;20086;-73
2022/04/07 09:18:42;;;;;;;2.55;0.82;;;;;;;11.94;100.00;97996.38;5049342;28;20048;-72
2022/04/07 09:21:31;;;;;;;9.82;1.63;;;;;;;10.80;100.00;97995.91;5047028;28;20088;-73
2022/04/07 09:24:00;;;;;;;1.17;0.40;;;;;;;10.08;100.00;97974.56;5056170;28;20080;-72
2022/04/07 09:26:28;;;;;;;2.65;0.35;;;;;;;9.67;100.00;97991.66;5051474;28;20521;-73
2022/04/07 09:28:58;;;;;;;2.42;0.80;;;;;;;9.72;100.00;97975.25;5062951;28;20049;-71
2022/04/07 09:31:24;;;;;;;0.65;0.45;;;;;;;9.48;100.00;97962.44;5047253;28;20745;-72
2022/04/07 09:33:55;;;;;;;0.80;0.50;;;;;;;9.52;100.00;97947.28;5048478;28;20052;-74
2022/04/07 09:36:23;;;;;;;3.20;0.90;;;;;;;9.67;100.00;97956.53;5047543;28;20181;-72
2022/04/07 09:38:51;;;;;;;1.40;0.73;;;;;;;9.62;100.00;97957.13;5051613;28;20069;-73
2022/04/07 09:41:19;;;;;;;0.50;0.50;;;;;;;9.44;100.00;97956.31;5050106;28;20118;-72
2022/04/07 09:43:57;;;;;;;4.18;0.70;;;;;;;9.54;100.00;97953.13;5047898;28;20060;-72
2022/04/07 09:46:26;;;;;;;0.90;0.60;;;;;;;9.29;100.00;97967.16;5050194;28;20053;-73
2022/04/07 09:49:06;;;;;;;3.95;1.02;;;;;;;9.48;100.00;97970.72;5050423;28;20458;-71
2022/04/07 09:51:40;;;;;;;3.45;1.02;;;;;;;9.45;100.00;97969.66;5050022;28;20053;-73
2022/04/07 09:54:11;;;;;;;2.67;0.88;;;;;;;9.53;100.00;97968.16;5050171;28;20124;-74
2022/04/07 09:56:38;;;;;;;3.40;1.20;;;;;;;9.55;100.00;97956.69;5062884;28;20084;-74
2022/04/07 09:59:06;;;;;;;2.85;1.65;;;;;;;9.53;100.00;97948.06;5047387;28;20128;-74
2022/04/07 10:01:35;;;;;;;1.52;1.05;;;;;;;9.52;100.00;97961.09;5049817;28;20156;-72
2022/04/07 10:04:03;;;;;;;4.28;1.30;;;;;;;9.64;100.00;97951.16;5048804;28;20053;-73
2022/04/07 10:06:31;;;;;;;1.92;1.15;;;;;;;9.75;100.00;97957.78;5049945;28;20080;-72
2022/04/07 10:09:00;;;;;;;2.85;1.65;;;;;;;9.85;100.00;97955.78;5053887;28;20094;-71
2022/04/07 10:11:31;;;;;;;3.67;1.13;;;;;;;9.86;100.00;97947.06;5057714;28;20539;-72
2022/04/07 10:13:58;;;;;;;2.55;1.73;;;;;;;9.99;100.00;97939.41;5053067;28;20135;-71
2022/04/07 10:16:42;;;;;;;3.55;1.15;;;;;;;10.10;100.00;97942.50;5047420;28;20061;-72
2022/04/07 10:19:19;;;;;;;4.40;1.77;;;;;;;10.37;100.00;97934.19;5039187;28;20049;-72
2022/04/07 10:21:55;;;;;;;3.83;2.00;;;;;;;10.38;100.00;97934.97;5046319;28;20059;-73
2022/04/07 10:24:31;;;;;;;2.15;1.17;;;;;;;10.71;100.00;97948.91;5050767;28;20077;-74
2022/04/07 10:27:22;;;;;;;1.67;1.10;;;;;;;10.78;100.00;97932.75;5043296;28;20098;-72
2022/04/07 10:30:04;;;;;;;5.57;2.65;;;;;;;11.02;100.00;97938.34;5054876;28;20056;-75
2022/04/07 10:32:40;;;;;;;7.00;3.42;;;;;;;11.16;100.00;97924.63;5037926;28;20091;-73
2022/04/07 10:35:08;;;;;;;6.05;3.28;;;;;;;11.12;100.00;97945.41;5048781;28;20072;-74
2022/04/07 10:37:45;;;;;;;6.10;2.80;;;;;;;11.29;100.00;97947.31;5055339;28;20053;-72
2022/04/07 10:40:49;;;;;;;9.15;4.72;;;;;;;11.33;100.00;97930.53;5046124;28;20081;-74
2022/04/07 10:43:21;;;;;;;15.98;6.65;;;;;;;11.69;100.00;97922.84;5047413;28;20488;-74
2022/04/07 10:45:52;;;;;;;6.28;2.85;;;;;;;11.92;100.00;97932.38;5057506;28;20774;-74
2022/04/07 10:48:24;;;;;;;10.93;5.20;;;;;;;11.90;100.00;97951.47;5054884;28;20052;-73
2022/04/07 10:50:59;;;;;;;11.20;4.55;;;;;;;12.32;100.00;97935.47;5053727;28;20156;-73
2022/04/07 10:53:26;;;;;;;;;;;;;;;12.32;100.00;97935.47;5042111;28;20076;-74
2022/04/07 10:55:54;;;;;;;7.35;3.60;;;;;;;12.63;100.00;97933.75;5047999;28;19925;-73
2022/04/07 10:58:35;;;;;;;5.25;2.30;;;;;;;12.56;100.00;97928.59;5036078;28;20710;-74
2022/04/07 11:01:02;;;;;;;7.22;2.92;;;;;;;12.38;100.00;97939.84;5052186;28;20128;-73
2022/04/07 11:03:29;;;;;;;4.97;2.53;;;;;;;12.70;100.00;97924.31;5052633;28;20139;-74
2022/04/07 11:06:03;;;;;;;7.78;3.30;;;;;;;12.74;100.00;97939.53;5049284;28;20041;-75
2022/04/07 11:08:30;;;;;;;7.68;2.67;;;;;;;12.85;100.00;97948.03;5036410;28;20136;-73
2022/04/07 11:10:56;;;;;;;6.15;3.05;;;;;;;13.09;100.00;97953.50;5035496;28;20045;-75
2022/04/07 11:13:43;;;;;;;11.05;3.22;;;;;;;13.26;100.00;97957.31;5047599;28;20052;-74
2022/04/07 11:16:21;;;;;;;4.90;3.03;;;;;;;13.99;100.00;97945.97;5050540;28;20083;-74
2022/04/07 11:19:00;;;;;;;5.15;2.40;;;;;;;13.84;100.00;97970.31;5035744;28;20078;-76
2022/04/07 11:21:43;;;;;;;3.25;2.42;;;;;;;13.72;100.00;97949.16;5044834;28;20059;-74
2022/04/07 11:24:15;;;;;;;4.78;3.00;;;;;;;13.47;100.00;97955.38;5042685;28;20074;-76
2022/04/07 11:26:42;;;;;;;3.53;1.90;;;;;;;13.55;100.00;97957.25;5044601;28;20053;-76
2022/04/07 11:29:12;;;;;;;7.85;3.50;;;;;;;13.71;100.00;97948.41;5045925;28;20036;-76
2022/04/07 11:31:49;;;;;;;5.00;3.15;;;;;;;13.58;98.53;97953.53;5045972;28;20126;-74